Terminal Aerodrome Forecast
Issued by NWS Pittsburgh, PA

Current Version | Previous Version | Graphics & Text | Print | Product List | Glossary On
Versions: 1 2 3 4 5 6 7 8 9 10 11 12 13 14 15 16 17 18 19 20 21 22 23 24 25 26 27 28 29 30 31
000
FTUS41 KPBZ 241100
TAFPIT
TAF
KPIT 241120Z 2412/2518 21014G23KT P6SM VCSH BKN040 OVC060
     FM241600 20020G45KT P6SM BKN050
     FM242100 23014G30KT P6SM BKN050
     FM250600 23010G20KT P6SM BKN025=

USA.gov is the U.S. government's official web portal to all federal, state and local government web resources and services.